METAR Data
IDs: Format: Raw Decoded Include TAF

Data at: 1627 UTC 18 Feb 2019

METAR for:KBRL (Burlington/SE Iowa R, IA, US)
Text:KBRL 181553Z AUTO 34009KT 10SM CLR M05/M09 A3038 RMK AO2 SLP297 T10501094 $
Temperature: -5.0°C ( 23°F)
Dewpoint: -9.4°C ( 15°F) [RH = 71%]
Pressure (altimeter):30.38 inches Hg (1028.9 mb) [Sea level pressure: 1029.7 mb]
Winds:from the NNW (340 degrees) at 10 MPH (9 knots; 4.6 m/s)
Visibility:10 or more sm (16+ km)
Ceiling:at least 12,000 feet AGL
Clouds:sky clear below 12,000 feet AGL
QC Flag:automated observation with no human augmentation; SOME DATA ABOVE MAY BE INACCURATE!!!"$" is an indication the sensor requires maintenance.